sensor_id;sensor_type;location;lat;lon;timestamp;pressure;altitude;pressure_sealevel;temperature
73937;BMP180;59249;59.736;30.568;2022-09-09T00:00:47;102323.00;;;4.30
73937;BMP180;59249;59.736;30.568;2022-09-09T00:03:26;102319.00;;;4.40
73937;BMP180;59249;59.736;30.568;2022-09-09T00:06:01;102325.00;;;4.40
73937;BMP180;59249;59.736;30.568;2022-09-09T00:08:43;102321.00;;;4.40
73937;BMP180;59249;59.736;30.568;2022-09-09T00:11:25;102318.00;;;4.40
73937;BMP180;59249;59.736;30.568;2022-09-09T00:14:00;102328.00;;;4.40
73937;BMP180;59249;59.736;30.568;2022-09-09T00:16:36;102322.00;;;4.40
73937;BMP180;59249;59.736;30.568;2022-09-09T00:19:17;102326.00;;;4.40
73937;BMP180;59249;59.736;30.568;2022-09-09T00:21:58;102325.00;;;4.50
73937;BMP180;59249;59.736;30.568;2022-09-09T00:24:39;102325.00;;;4.50
73937;BMP180;59249;59.736;30.568;2022-09-09T00:27:16;102332.00;;;4.50
73937;BMP180;59249;59.736;30.568;2022-09-09T00:29:56;102327.00;;;4.50
73937;BMP180;59249;59.736;30.568;2022-09-09T00:32:30;102335.00;;;4.60
73937;BMP180;59249;59.736;30.568;2022-09-09T00:35:10;102331.00;;;4.60
73937;BMP180;59249;59.736;30.568;2022-09-09T00:37:47;102336.00;;;4.70
73937;BMP180;59249;59.736;30.568;2022-09-09T00:40:29;102339.00;;;4.70
73937;BMP180;59249;59.736;30.568;2022-09-09T00:43:15;102330.00;;;4.80
73937;BMP180;59249;59.736;30.568;2022-09-09T00:46:05;102334.00;;;4.80
73937;BMP180;59249;59.736;30.568;2022-09-09T00:49:00;102344.00;;;4.70
73937;BMP180;59249;59.736;30.568;2022-09-09T00:51:41;102336.00;;;4.70
73937;BMP180;59249;59.736;30.568;2022-09-09T00:54:27;102339.00;;;4.80
73937;BMP180;59249;59.736;30.568;2022-09-09T00:57:11;102338.00;;;4.90
73937;BMP180;59249;59.736;30.568;2022-09-09T00:59:47;102341.00;;;4.90
73937;BMP180;59249;59.736;30.568;2022-09-09T01:02:28;102335.00;;;4.90
73937;BMP180;59249;59.736;30.568;2022-09-09T01:05:06;102341.00;;;5.00
73937;BMP180;59249;59.736;30.568;2022-09-09T01:07:44;102343.00;;;5.00
73937;BMP180;59249;59.736;30.568;2022-09-09T01:10:27;102336.00;;;5.00
73937;BMP180;59249;59.736;30.568;2022-09-09T01:13:11;102329.00;;;5.00
73937;BMP180;59249;59.736;30.568;2022-09-09T01:15:48;102337.00;;;5.10
73937;BMP180;59249;59.736;30.568;2022-09-09T01:18:30;102333.00;;;5.20
73937;BMP180;59249;59.736;30.568;2022-09-09T01:21:09;102325.00;;;5.20
73937;BMP180;59249;59.736;30.568;2022-09-09T01:24:04;102332.00;;;5.30
73937;BMP180;59249;59.736;30.568;2022-09-09T01:26:56;102328.00;;;5.30
73937;BMP180;59249;59.736;30.568;2022-09-09T01:29:28;102336.00;;;5.40
73937;BMP180;59249;59.736;30.568;2022-09-09T01:32:00;102332.00;;;5.40
73937;BMP180;59249;59.736;30.568;2022-09-09T01:34:33;102334.00;;;5.50
73937;BMP180;59249;59.736;30.568;2022-09-09T01:37:10;102346.00;;;5.50
73937;BMP180;59249;59.736;30.568;2022-09-09T01:39:43;102347.00;;;5.50
73937;BMP180;59249;59.736;30.568;2022-09-09T01:42:17;102337.00;;;5.50
73937;BMP180;59249;59.736;30.568;2022-09-09T01:44:46;102334.00;;;5.50
73937;BMP180;59249;59.736;30.568;2022-09-09T01:47:15;102337.00;;;5.50
73937;BMP180;59249;59.736;30.568;2022-09-09T01:50:13;102339.00;;;5.60
73937;BMP180;59249;59.736;30.568;2022-09-09T01:52:47;102337.00;;;5.50
73937;BMP180;59249;59.736;30.568;2022-09-09T01:55:29;102343.00;;;5.40
73937;BMP180;59249;59.736;30.568;2022-09-09T01:58:13;102336.00;;;5.50
73937;BMP180;59249;59.736;30.568;2022-09-09T02:00:58;102339.00;;;5.50
73937;BMP180;59249;59.736;30.568;2022-09-09T02:03:35;102344.00;;;5.60
73937;BMP180;59249;59.736;30.568;2022-09-09T02:06:20;102337.00;;;5.60
73937;BMP180;59249;59.736;30.568;2022-09-09T02:09:01;102347.00;;;5.60
73937;BMP180;59249;59.736;30.568;2022-09-09T02:11:33;102345.00;;;5.60
73937;BMP180;59249;59.736;30.568;2022-09-09T02:14:18;102351.00;;;5.60
73937;BMP180;59249;59.736;30.568;2022-09-09T02:16:53;102342.00;;;5.60
73937;BMP180;59249;59.736;30.568;2022-09-09T02:19:37;102336.00;;;5.60
73937;BMP180;59249;59.736;30.568;2022-09-09T02:22:22;102342.00;;;5.60
73937;BMP180;59249;59.736;30.568;2022-09-09T02:24:56;102336.00;;;5.60
73937;BMP180;59249;59.736;30.568;2022-09-09T02:27:29;102342.00;;;5.60
73937;BMP180;59249;59.736;30.568;2022-09-09T02:30:01;102341.00;;;5.50
73937;BMP180;59249;59.736;30.568;2022-09-09T02:32:40;102334.00;;;5.60
73937;BMP180;59249;59.736;30.568;2022-09-09T02:35:15;102332.00;;;5.60
73937;BMP180;59249;59.736;30.568;2022-09-09T02:37:45;102338.00;;;5.70
73937;BMP180;59249;59.736;30.568;2022-09-09T02:40:15;102336.00;;;5.70
73937;BMP180;59249;59.736;30.568;2022-09-09T02:42:49;102345.00;;;5.70
73937;BMP180;59249;59.736;30.568;2022-09-09T02:45:25;102345.00;;;5.60
73937;BMP180;59249;59.736;30.568;2022-09-09T02:48:03;102338.00;;;5.70
73937;BMP180;59249;59.736;30.568;2022-09-09T02:50:51;102335.00;;;5.80
73937;BMP180;59249;59.736;30.568;2022-09-09T02:53:35;102333.00;;;5.80
73937;BMP180;59249;59.736;30.568;2022-09-09T02:56:14;102334.00;;;5.80
73937;BMP180;59249;59.736;30.568;2022-09-09T02:58:47;102331.00;;;5.80
73937;BMP180;59249;59.736;30.568;2022-09-09T03:01:20;102332.00;;;5.90
73937;BMP180;59249;59.736;30.568;2022-09-09T03:03:49;102325.00;;;5.90
73937;BMP180;59249;59.736;30.568;2022-09-09T03:06:18;102328.00;;;5.90
73937;BMP180;59249;59.736;30.568;2022-09-09T03:08:52;102324.00;;;5.90
73937;BMP180;59249;59.736;30.568;2022-09-09T03:11:25;102329.00;;;5.90
73937;BMP180;59249;59.736;30.568;2022-09-09T03:13:55;102330.00;;;5.90
73937;BMP180;59249;59.736;30.568;2022-09-09T03:16:27;102324.00;;;5.90
73937;BMP180;59249;59.736;30.568;2022-09-09T03:18:56;102330.00;;;5.90
73937;BMP180;59249;59.736;30.568;2022-09-09T03:21:25;102329.00;;;5.90
73937;BMP180;59249;59.736;30.568;2022-09-09T03:23:54;102338.00;;;5.80
73937;BMP180;59249;59.736;30.568;2022-09-09T03:26:24;102331.00;;;5.90
73937;BMP180;59249;59.736;30.568;2022-09-09T03:28:53;102334.00;;;5.90
73937;BMP180;59249;59.736;30.568;2022-09-09T03:31:23;102335.00;;;5.90
73937;BMP180;59249;59.736;30.568;2022-09-09T03:33:53;102330.00;;;6.00
73937;BMP180;59249;59.736;30.568;2022-09-09T03:36:22;102333.00;;;6.00
73937;BMP180;59249;59.736;30.568;2022-09-09T03:38:53;102334.00;;;6.00
73937;BMP180;59249;59.736;30.568;2022-09-09T03:41:24;102328.00;;;6.10
73937;BMP180;59249;59.736;30.568;2022-09-09T03:43:54;102327.00;;;6.10
73937;BMP180;59249;59.736;30.568;2022-09-09T03:46:25;102321.00;;;6.10
73937;BMP180;59249;59.736;30.568;2022-09-09T03:48:56;102325.00;;;6.10
73937;BMP180;59249;59.736;30.568;2022-09-09T03:51:25;102320.00;;;6.10
73937;BMP180;59249;59.736;30.568;2022-09-09T03:53:54;102325.00;;;6.20
73937;BMP180;59249;59.736;30.568;2022-09-09T03:56:26;102336.00;;;6.20
73937;BMP180;59249;59.736;30.568;2022-09-09T03:58:56;102331.00;;;6.20
73937;BMP180;59249;59.736;30.568;2022-09-09T04:01:26;102338.00;;;6.20
73937;BMP180;59249;59.736;30.568;2022-09-09T04:03:57;102341.00;;;6.20
73937;BMP180;59249;59.736;30.568;2022-09-09T04:06:26;102343.00;;;6.30
73937;BMP180;59249;59.736;30.568;2022-09-09T04:08:56;102336.00;;;6.30
73937;BMP180;59249;59.736;30.568;2022-09-09T04:11:26;102339.00;;;6.50
73937;BMP180;59249;59.736;30.568;2022-09-09T04:13:57;102337.00;;;6.40
73937;BMP180;59249;59.736;30.568;2022-09-09T04:16:27;102338.00;;;6.50
73937;BMP180;59249;59.736;30.568;2022-09-09T04:18:57;102340.00;;;6.60
73937;BMP180;59249;59.736;30.568;2022-09-09T04:21:26;102345.00;;;6.60
73937;BMP180;59249;59.736;30.568;2022-09-09T04:23:55;102341.00;;;6.70
73937;BMP180;59249;59.736;30.568;2022-09-09T04:26:26;102344.00;;;6.80
73937;BMP180;59249;59.736;30.568;2022-09-09T04:28:55;102352.00;;;6.80
73937;BMP180;59249;59.736;30.568;2022-09-09T04:31:23;102349.00;;;6.90
73937;BMP180;59249;59.736;30.568;2022-09-09T04:33:57;102344.00;;;7.00
73937;BMP180;59249;59.736;30.568;2022-09-09T04:36:29;102348.00;;;7.10
73937;BMP180;59249;59.736;30.568;2022-09-09T04:39:01;102345.00;;;7.10
73937;BMP180;59249;59.736;30.568;2022-09-09T04:41:31;102350.00;;;7.20
73937;BMP180;59249;59.736;30.568;2022-09-09T04:44:01;102342.00;;;7.20
73937;BMP180;59249;59.736;30.568;2022-09-09T04:46:31;102342.00;;;7.30
73937;BMP180;59249;59.736;30.568;2022-09-09T04:49:02;102346.00;;;7.30
73937;BMP180;59249;59.736;30.568;2022-09-09T04:51:33;102352.00;;;7.30
73937;BMP180;59249;59.736;30.568;2022-09-09T04:54:02;102354.00;;;7.30
73937;BMP180;59249;59.736;30.568;2022-09-09T04:56:32;102359.00;;;7.50
73937;BMP180;59249;59.736;30.568;2022-09-09T04:59:01;102347.00;;;7.50
73937;BMP180;59249;59.736;30.568;2022-09-09T05:01:37;102352.00;;;7.50
73937;BMP180;59249;59.736;30.568;2022-09-09T05:04:07;102359.00;;;7.60
73937;BMP180;59249;59.736;30.568;2022-09-09T05:06:36;102358.00;;;7.70
73937;BMP180;59249;59.736;30.568;2022-09-09T05:09:05;102353.00;;;7.70
73937;BMP180;59249;59.736;30.568;2022-09-09T05:11:34;102355.00;;;7.80
73937;BMP180;59249;59.736;30.568;2022-09-09T05:14:24;102348.00;;;7.80
73937;BMP180;59249;59.736;30.568;2022-09-09T05:16:54;102355.00;;;8.00
73937;BMP180;59249;59.736;30.568;2022-09-09T05:19:25;102359.00;;;8.10
73937;BMP180;59249;59.736;30.568;2022-09-09T05:21:54;102366.00;;;8.20
73937;BMP180;59249;59.736;30.568;2022-09-09T05:24:30;102367.00;;;8.30
73937;BMP180;59249;59.736;30.568;2022-09-09T05:27:02;102366.00;;;8.40
73937;BMP180;59249;59.736;30.568;2022-09-09T05:29:32;102369.00;;;8.40
73937;BMP180;59249;59.736;30.568;2022-09-09T05:32:04;102369.00;;;8.50
73937;BMP180;59249;59.736;30.568;2022-09-09T05:34:36;102359.00;;;8.50
73937;BMP180;59249;59.736;30.568;2022-09-09T05:37:06;102360.00;;;8.60
73937;BMP180;59249;59.736;30.568;2022-09-09T05:39:36;102358.00;;;8.50
73937;BMP180;59249;59.736;30.568;2022-09-09T05:42:05;102360.00;;;8.50
73937;BMP180;59249;59.736;30.568;2022-09-09T05:44:34;102366.00;;;8.50
73937;BMP180;59249;59.736;30.568;2022-09-09T05:47:04;102367.00;;;8.40
73937;BMP180;59249;59.736;30.568;2022-09-09T05:49:33;102373.00;;;8.40
73937;BMP180;59249;59.736;30.568;2022-09-09T05:52:04;102381.00;;;8.60
73937;BMP180;59249;59.736;30.568;2022-09-09T05:54:34;102370.00;;;8.50
73937;BMP180;59249;59.736;30.568;2022-09-09T05:57:04;102370.00;;;8.60
73937;BMP180;59249;59.736;30.568;2022-09-09T05:59:33;102370.00;;;8.60
73937;BMP180;59249;59.736;30.568;2022-09-09T06:02:02;102364.00;;;8.60
73937;BMP180;59249;59.736;30.568;2022-09-09T06:04:37;102366.00;;;8.70
73937;BMP180;59249;59.736;30.568;2022-09-09T06:07:06;102363.00;;;8.70
73937;BMP180;59249;59.736;30.568;2022-09-09T06:09:35;102369.00;;;8.80
73937;BMP180;59249;59.736;30.568;2022-09-09T06:12:07;102368.00;;;8.90
73937;BMP180;59249;59.736;30.568;2022-09-09T06:14:37;102372.00;;;9.00
73937;BMP180;59249;59.736;30.568;2022-09-09T06:17:12;102376.00;;;9.00
73937;BMP180;59249;59.736;30.568;2022-09-09T06:19:42;102373.00;;;9.10
73937;BMP180;59249;59.736;30.568;2022-09-09T06:22:11;102375.00;;;9.10
73937;BMP180;59249;59.736;30.568;2022-09-09T06:24:41;102377.00;;;9.20
73937;BMP180;59249;59.736;30.568;2022-09-09T06:27:09;102387.00;;;9.30
73937;BMP180;59249;59.736;30.568;2022-09-09T06:29:41;102383.00;;;9.30
73937;BMP180;59249;59.736;30.568;2022-09-09T06:32:10;102385.00;;;9.40
73937;BMP180;59249;59.736;30.568;2022-09-09T06:34:39;102384.00;;;9.50
73937;BMP180;59249;59.736;30.568;2022-09-09T06:37:10;102374.00;;;9.50
73937;BMP180;59249;59.736;30.568;2022-09-09T06:39:45;102377.00;;;9.50
73937;BMP180;59249;59.736;30.568;2022-09-09T06:42:15;102374.00;;;9.60
73937;BMP180;59249;59.736;30.568;2022-09-09T06:45:17;102377.00;;;9.70
73937;BMP180;59249;59.736;30.568;2022-09-09T06:47:54;102376.00;;;9.80
73937;BMP180;59249;59.736;30.568;2022-09-09T06:50:24;102374.00;;;9.80
73937;BMP180;59249;59.736;30.568;2022-09-09T06:52:54;102384.00;;;9.80
73937;BMP180;59249;59.736;30.568;2022-09-09T06:55:23;102383.00;;;9.90
73937;BMP180;59249;59.736;30.568;2022-09-09T06:57:52;102378.00;;;9.90
73937;BMP180;59249;59.736;30.568;2022-09-09T07:00:22;102383.00;;;10.00
73937;BMP180;59249;59.736;30.568;2022-09-09T07:02:51;102386.00;;;10.10
73937;BMP180;59249;59.736;30.568;2022-09-09T07:05:20;102387.00;;;10.20
73937;BMP180;59249;59.736;30.568;2022-09-09T07:07:51;102384.00;;;10.20
73937;BMP180;59249;59.736;30.568;2022-09-09T07:10:21;102388.00;;;10.30
73937;BMP180;59249;59.736;30.568;2022-09-09T07:12:51;102383.00;;;10.40
73937;BMP180;59249;59.736;30.568;2022-09-09T07:15:22;102383.00;;;10.50
73937;BMP180;59249;59.736;30.568;2022-09-09T07:17:52;102395.00;;;10.70
73937;BMP180;59249;59.736;30.568;2022-09-09T07:20:21;102388.00;;;10.90
73937;BMP180;59249;59.736;30.568;2022-09-09T07:22:55;102398.00;;;11.10
73937;BMP180;59249;59.736;30.568;2022-09-09T07:25:27;102399.00;;;11.30
73937;BMP180;59249;59.736;30.568;2022-09-09T07:27:57;102393.00;;;11.40
73937;BMP180;59249;59.736;30.568;2022-09-09T07:30:26;102391.00;;;11.40
73937;BMP180;59249;59.736;30.568;2022-09-09T07:32:57;102392.00;;;11.40
73937;BMP180;59249;59.736;30.568;2022-09-09T07:35:27;102402.00;;;11.50
73937;BMP180;59249;59.736;30.568;2022-09-09T07:37:55;102405.00;;;11.60
73937;BMP180;59249;59.736;30.568;2022-09-09T07:40:26;102400.00;;;11.80
73937;BMP180;59249;59.736;30.568;2022-09-09T07:42:57;102400.00;;;12.00
73937;BMP180;59249;59.736;30.568;2022-09-09T07:45:26;102402.00;;;12.20
73937;BMP180;59249;59.736;30.568;2022-09-09T07:47:56;102407.00;;;12.40
73937;BMP180;59249;59.736;30.568;2022-09-09T07:50:25;102406.00;;;12.50
73937;BMP180;59249;59.736;30.568;2022-09-09T07:52:54;102410.00;;;12.70
73937;BMP180;59249;59.736;30.568;2022-09-09T07:55:24;102408.00;;;12.70
73937;BMP180;59249;59.736;30.568;2022-09-09T07:57:55;102407.00;;;12.80
73937;BMP180;59249;59.736;30.568;2022-09-09T08:00:24;102409.00;;;12.90
73937;BMP180;59249;59.736;30.568;2022-09-09T08:02:56;102409.00;;;12.90
73937;BMP180;59249;59.736;30.568;2022-09-09T08:05:25;102411.00;;;13.00
73937;BMP180;59249;59.736;30.568;2022-09-09T08:07:54;102407.00;;;13.20
73937;BMP180;59249;59.736;30.568;2022-09-09T08:10:23;102414.00;;;13.30
73937;BMP180;59249;59.736;30.568;2022-09-09T08:12:55;102412.00;;;13.40
73937;BMP180;59249;59.736;30.568;2022-09-09T08:15:43;102417.00;;;13.40
73937;BMP180;59249;59.736;30.568;2022-09-09T08:18:12;102419.00;;;13.50
73937;BMP180;59249;59.736;30.568;2022-09-09T08:20:43;102423.00;;;13.60
73937;BMP180;59249;59.736;30.568;2022-09-09T08:23:12;102425.00;;;13.60
73937;BMP180;59249;59.736;30.568;2022-09-09T08:25:41;102418.00;;;13.50
73937;BMP180;59249;59.736;30.568;2022-09-09T08:28:11;102424.00;;;13.60
73937;BMP180;59249;59.736;30.568;2022-09-09T08:30:39;102418.00;;;13.40
73937;BMP180;59249;59.736;30.568;2022-09-09T08:33:09;102426.00;;;13.40
73937;BMP180;59249;59.736;30.568;2022-09-09T08:35:38;102427.00;;;13.50
73937;BMP180;59249;59.736;30.568;2022-09-09T08:38:07;102432.00;;;13.40
73937;BMP180;59249;59.736;30.568;2022-09-09T08:40:43;102433.00;;;13.40
73937;BMP180;59249;59.736;30.568;2022-09-09T08:43:20;102424.00;;;13.60
73937;BMP180;59249;59.736;30.568;2022-09-09T08:45:57;102427.00;;;13.70
73937;BMP180;59249;59.736;30.568;2022-09-09T08:48:43;102422.00;;;13.70
73937;BMP180;59249;59.736;30.568;2022-09-09T08:51:19;102429.00;;;13.70
73937;BMP180;59249;59.736;30.568;2022-09-09T08:53:51;102423.00;;;13.70
73937;BMP180;59249;59.736;30.568;2022-09-09T08:56:27;102428.00;;;13.70
73937;BMP180;59249;59.736;30.568;2022-09-09T08:59:02;102426.00;;;13.80
73937;BMP180;59249;59.736;30.568;2022-09-09T09:01:43;102429.00;;;13.90
73937;BMP180;59249;59.736;30.568;2022-09-09T09:04:38;102428.00;;;14.00
73937;BMP180;59249;59.736;30.568;2022-09-09T09:07:28;102437.00;;;14.10
73937;BMP180;59249;59.736;30.568;2022-09-09T09:10:14;102430.00;;;14.20
73937;BMP180;59249;59.736;30.568;2022-09-09T09:13:13;102435.00;;;14.30
73937;BMP180;59249;59.736;30.568;2022-09-09T09:15:51;102436.00;;;14.30
73937;BMP180;59249;59.736;30.568;2022-09-09T09:18:24;102434.00;;;14.30
73937;BMP180;59249;59.736;30.568;2022-09-09T09:20:58;102438.00;;;14.30
73937;BMP180;59249;59.736;30.568;2022-09-09T09:23:39;102442.00;;;14.30
73937;BMP180;59249;59.736;30.568;2022-09-09T09:26:13;102436.00;;;14.30
73937;BMP180;59249;59.736;30.568;2022-09-09T09:28:42;102435.00;;;14.40
73937;BMP180;59249;59.736;30.568;2022-09-09T09:31:18;102427.00;;;14.50
73937;BMP180;59249;59.736;30.568;2022-09-09T09:33:50;102430.00;;;14.60
73937;BMP180;59249;59.736;30.568;2022-09-09T09:36:32;102434.00;;;14.70
73937;BMP180;59249;59.736;30.568;2022-09-09T09:39:04;102426.00;;;14.80
73937;BMP180;59249;59.736;30.568;2022-09-09T09:41:57;102427.00;;;15.00
73937;BMP180;59249;59.736;30.568;2022-09-09T09:44:32;102425.00;;;15.10
73937;BMP180;59249;59.736;30.568;2022-09-09T09:47:15;102429.00;;;15.00
73937;BMP180;59249;59.736;30.568;2022-09-09T09:49:56;102422.00;;;15.00
73937;BMP180;59249;59.736;30.568;2022-09-09T09:52:31;102423.00;;;15.00
73937;BMP180;59249;59.736;30.568;2022-09-09T09:55:05;102427.00;;;15.10
73937;BMP180;59249;59.736;30.568;2022-09-09T09:57:44;102428.00;;;15.10
73937;BMP180;59249;59.736;30.568;2022-09-09T10:00:15;102424.00;;;15.10
73937;BMP180;59249;59.736;30.568;2022-09-09T10:02:54;102433.00;;;15.20
73937;BMP180;59249;59.736;30.568;2022-09-09T10:05:28;102428.00;;;14.90
73937;BMP180;59249;59.736;30.568;2022-09-09T10:08:11;102427.00;;;15.10
73937;BMP180;59249;59.736;30.568;2022-09-09T10:10:51;102421.00;;;15.10
73937;BMP180;59249;59.736;30.568;2022-09-09T10:13:43;102417.00;;;15.40
73937;BMP180;59249;59.736;30.568;2022-09-09T10:16:25;102419.00;;;15.50
73937;BMP180;59249;59.736;30.568;2022-09-09T10:19:12;102422.00;;;15.50
73937;BMP180;59249;59.736;30.568;2022-09-09T10:22:19;102418.00;;;15.40
73937;BMP180;59249;59.736;30.568;2022-09-09T10:25:14;102423.00;;;15.40
73937;BMP180;59249;59.736;30.568;2022-09-09T10:28:15;102415.00;;;15.30
73937;BMP180;59249;59.736;30.568;2022-09-09T10:31:02;102416.00;;;15.30
73937;BMP180;59249;59.736;30.568;2022-09-09T10:33:48;102418.00;;;15.20
73937;BMP180;59249;59.736;30.568;2022-09-09T10:36:22;102422.00;;;15.20
73937;BMP180;59249;59.736;30.568;2022-09-09T10:38:57;102417.00;;;15.30
73937;BMP180;59249;59.736;30.568;2022-09-09T10:41:42;102417.00;;;15.50
73937;BMP180;59249;59.736;30.568;2022-09-09T10:44:33;102417.00;;;15.50
73937;BMP180;59249;59.736;30.568;2022-09-09T10:47:39;102421.00;;;15.40
73937;BMP180;59249;59.736;30.568;2022-09-09T10:50:50;102418.00;;;15.50
73937;BMP180;59249;59.736;30.568;2022-09-09T10:53:45;102415.00;;;15.60
73937;BMP180;59249;59.736;30.568;2022-09-09T10:56:22;102418.00;;;15.70
73937;BMP180;59249;59.736;30.568;2022-09-09T10:58:55;102415.00;;;15.70
73937;BMP180;59249;59.736;30.568;2022-09-09T11:01:32;102417.00;;;15.90
73937;BMP180;59249;59.736;30.568;2022-09-09T11:04:13;102422.00;;;15.90
73937;BMP180;59249;59.736;30.568;2022-09-09T11:06:50;102421.00;;;15.90
73937;BMP180;59249;59.736;30.568;2022-09-09T11:09:27;102417.00;;;15.90
73937;BMP180;59249;59.736;30.568;2022-09-09T11:12:00;102412.00;;;15.90
73937;BMP180;59249;59.736;30.568;2022-09-09T11:14:32;102415.00;;;15.90
73937;BMP180;59249;59.736;30.568;2022-09-09T11:17:11;102406.00;;;15.50
73937;BMP180;59249;59.736;30.568;2022-09-09T11:19:44;102407.00;;;15.70
73937;BMP180;59249;59.736;30.568;2022-09-09T11:22:18;102408.00;;;15.60
73937;BMP180;59249;59.736;30.568;2022-09-09T11:24:58;102413.00;;;15.50
73937;BMP180;59249;59.736;30.568;2022-09-09T11:27:38;102406.00;;;15.40
73937;BMP180;59249;59.736;30.568;2022-09-09T11:30:20;102406.00;;;15.40
73937;BMP180;59249;59.736;30.568;2022-09-09T11:33:42;102406.00;;;15.40
73937;BMP180;59249;59.736;30.568;2022-09-09T11:36:48;102401.00;;;15.40
73937;BMP180;59249;59.736;30.568;2022-09-09T11:39:46;102398.00;;;15.50
73937;BMP180;59249;59.736;30.568;2022-09-09T11:42:24;102399.00;;;15.70
73937;BMP180;59249;59.736;30.568;2022-09-09T11:44:53;102402.00;;;15.80
73937;BMP180;59249;59.736;30.568;2022-09-09T11:47:25;102396.00;;;15.90
73937;BMP180;59249;59.736;30.568;2022-09-09T11:50:09;102400.00;;;15.70
73937;BMP180;59249;59.736;30.568;2022-09-09T11:53:22;102393.00;;;15.70
73937;BMP180;59249;59.736;30.568;2022-09-09T11:56:06;102405.00;;;15.60
73937;BMP180;59249;59.736;30.568;2022-09-09T11:58:42;102400.00;;;15.60
73937;BMP180;59249;59.736;30.568;2022-09-09T12:01:33;102399.00;;;15.70
73937;BMP180;59249;59.736;30.568;2022-09-09T12:04:37;102401.00;;;15.70
73937;BMP180;59249;59.736;30.568;2022-09-09T12:07:25;102389.00;;;15.70
73937;BMP180;59249;59.736;30.568;2022-09-09T12:10:04;102387.00;;;15.60
73937;BMP180;59249;59.736;30.568;2022-09-09T12:12:47;102372.00;;;15.30
73937;BMP180;59249;59.736;30.568;2022-09-09T12:15:23;102376.00;;;15.20
73937;BMP180;59249;59.736;30.568;2022-09-09T12:17:57;102382.00;;;15.30
73937;BMP180;59249;59.736;30.568;2022-09-09T12:20:34;102372.00;;;15.40
73937;BMP180;59249;59.736;30.568;2022-09-09T12:23:21;102374.00;;;15.40
73937;BMP180;59249;59.736;30.568;2022-09-09T12:26:23;102375.00;;;15.40
73937;BMP180;59249;59.736;30.568;2022-09-09T12:29:09;102365.00;;;15.70
73937;BMP180;59249;59.736;30.568;2022-09-09T12:31:53;102375.00;;;15.70
73937;BMP180;59249;59.736;30.568;2022-09-09T12:34:35;102381.00;;;15.70
73937;BMP180;59249;59.736;30.568;2022-09-09T12:37:18;102373.00;;;15.70
73937;BMP180;59249;59.736;30.568;2022-09-09T12:39:56;102378.00;;;15.50
73937;BMP180;59249;59.736;30.568;2022-09-09T12:42:27;102371.00;;;15.40
73937;BMP180;59249;59.736;30.568;2022-09-09T12:44:57;102382.00;;;15.40
73937;BMP180;59249;59.736;30.568;2022-09-09T12:47:37;102381.00;;;15.40
73937;BMP180;59249;59.736;30.568;2022-09-09T12:50:16;102376.00;;;15.50
73937;BMP180;59249;59.736;30.568;2022-09-09T12:52:49;102367.00;;;15.40
73937;BMP180;59249;59.736;30.568;2022-09-09T12:55:23;102373.00;;;15.30
73937;BMP180;59249;59.736;30.568;2022-09-09T12:57:53;102364.00;;;15.30
73937;BMP180;59249;59.736;30.568;2022-09-09T13:00:24;102368.00;;;15.40
73937;BMP180;59249;59.736;30.568;2022-09-09T13:02:56;102364.00;;;15.30
73937;BMP180;59249;59.736;30.568;2022-09-09T13:05:33;102373.00;;;15.40
73937;BMP180;59249;59.736;30.568;2022-09-09T13:08:05;102369.00;;;15.40
73937;BMP180;59249;59.736;30.568;2022-09-09T13:10:39;102363.00;;;15.50
73937;BMP180;59249;59.736;30.568;2022-09-09T13:13:27;102366.00;;;15.40
73937;BMP180;59249;59.736;30.568;2022-09-09T13:16:00;102369.00;;;15.40
73937;BMP180;59249;59.736;30.568;2022-09-09T13:18:34;102361.00;;;15.30
73937;BMP180;59249;59.736;30.568;2022-09-09T13:21:05;102351.00;;;15.40
73937;BMP180;59249;59.736;30.568;2022-09-09T13:23:36;102352.00;;;15.40
73937;BMP180;59249;59.736;30.568;2022-09-09T13:26:18;102349.00;;;15.40
73937;BMP180;59249;59.736;30.568;2022-09-09T13:28:50;102345.00;;;15.40
73937;BMP180;59249;59.736;30.568;2022-09-09T13:31:21;102344.00;;;15.50
73937;BMP180;59249;59.736;30.568;2022-09-09T13:33:53;102343.00;;;15.50
73937;BMP180;59249;59.736;30.568;2022-09-09T13:36:29;102335.00;;;15.20
73937;BMP180;59249;59.736;30.568;2022-09-09T13:39:01;102332.00;;;15.30
73937;BMP180;59249;59.736;30.568;2022-09-09T13:41:33;102335.00;;;15.10
73937;BMP180;59249;59.736;30.568;2022-09-09T13:44:04;102330.00;;;15.00
73937;BMP180;59249;59.736;30.568;2022-09-09T13:46:35;102332.00;;;15.00
73937;BMP180;59249;59.736;30.568;2022-09-09T13:49:21;102322.00;;;14.90
73937;BMP180;59249;59.736;30.568;2022-09-09T13:51:51;102324.00;;;15.00
73937;BMP180;59249;59.736;30.568;2022-09-09T13:54:30;102328.00;;;15.00
73937;BMP180;59249;59.736;30.568;2022-09-09T13:56:59;102330.00;;;15.00
73937;BMP180;59249;59.736;30.568;2022-09-09T13:59:28;102321.00;;;15.10
73937;BMP180;59249;59.736;30.568;2022-09-09T14:02:17;102331.00;;;15.00
73937;BMP180;59249;59.736;30.568;2022-09-09T14:04:48;102325.00;;;15.00
73937;BMP180;59249;59.736;30.568;2022-09-09T14:07:21;102325.00;;;15.10
73937;BMP180;59249;59.736;30.568;2022-09-09T14:09:50;102320.00;;;15.00
73937;BMP180;59249;59.736;30.568;2022-09-09T14:12:19;102318.00;;;15.00
73937;BMP180;59249;59.736;30.568;2022-09-09T14:14:48;102321.00;;;15.00
73937;BMP180;59249;59.736;30.568;2022-09-09T14:17:17;102311.00;;;15.00
73937;BMP180;59249;59.736;30.568;2022-09-09T14:19:45;102313.00;;;15.00
73937;BMP180;59249;59.736;30.568;2022-09-09T14:22:16;102312.00;;;15.10
73937;BMP180;59249;59.736;30.568;2022-09-09T14:24:44;102305.00;;;15.10
73937;BMP180;59249;59.736;30.568;2022-09-09T14:27:13;102301.00;;;15.00
73937;BMP180;59249;59.736;30.568;2022-09-09T14:29:42;102312.00;;;15.00
73937;BMP180;59249;59.736;30.568;2022-09-09T14:32:12;102311.00;;;15.10
73937;BMP180;59249;59.736;30.568;2022-09-09T14:34:41;102304.00;;;15.10
73937;BMP180;59249;59.736;30.568;2022-09-09T14:37:11;102303.00;;;15.10